Time;durP1;ratioP1;P1;durP2;ratioP2;P2;SDS_P1;SDS_P2;PMS_P1;PMS_P2;Temp;Humidity;BMP_temperature;BMP_pressure;BME280_temperature;BME280_humidity;BME280_pressure;Samples;Min_cycle;Max_cycle;Signal;HPM_P1;HPM_P2
2022/04/21 00:00:35;;;;;;;5.95;3.55;;;4.30;99.90;;;;;;5049674;28;20037;-66
2022/04/21 00:03:03;;;;;;;6.00;3.03;;;4.30;99.90;;;;;;5043476;28;22460;-64
2022/04/21 00:05:31;;;;;;;8.95;3.55;;;4.40;99.90;;;;;;5039049;28;20148;-64
2022/04/21 00:07:59;;;;;;;6.75;2.83;;;4.40;99.90;;;;;;5032917;28;20072;-66
2022/04/21 00:10:27;;;;;;;3.83;2.90;;;4.40;99.90;;;;;;5032382;28;20097;-64
2022/04/21 00:12:54;;;;;;;3.92;2.50;;;4.40;99.90;;;;;;5022837;28;20077;-66
2022/04/21 00:15:22;;;;;;;8.82;3.53;;;4.40;99.90;;;;;;5025412;28;20697;-67
2022/04/21 00:17:50;;;;;;;4.47;2.83;;;4.40;99.90;;;;;;5025281;28;20529;-64
2022/04/21 00:20:17;;;;;;;5.28;3.38;;;4.40;99.90;;;;;;5033248;28;20043;-64
2022/04/21 00:25:29;;;;;;;4.18;2.78;;;4.40;99.90;;;;;;5048556;28;20486;-66
2022/04/21 00:27:56;;;;;;;6.38;3.33;;;4.40;99.90;;;;;;5030554;28;20045;-65
2022/04/21 00:30:24;;;;;;;6.45;3.05;;;4.40;99.90;;;;;;5042542;28;20421;-65
2022/04/21 00:32:51;;;;;;;7.65;3.20;;;4.40;99.90;;;;;;5040275;28;20037;-65
2022/04/21 00:35:23;;;;;;;4.45;2.22;;;4.40;99.90;;;;;;5047111;28;20048;-68
2022/04/21 00:37:57;;;;;;;3.55;2.72;;;4.40;99.90;;;;;;5041732;28;20052;-65
2022/04/21 00:40:29;;;;;;;4.03;3.60;;;4.40;99.90;;;;;;5059369;28;20086;-64
2022/04/21 00:42:57;;;;;;;7.03;2.60;;;4.40;99.90;;;;;;5036802;28;20048;-65
2022/04/21 00:45:26;;;;;;;5.80;2.72;;;4.40;99.90;;;;;;5032334;28;20484;-65
2022/04/21 00:47:55;;;;;;;10.23;4.38;;;4.40;99.90;;;;;;5044338;28;20039;-64
2022/04/21 00:50:25;;;;;;;5.90;3.50;;;4.40;99.90;;;;;;5037571;28;20049;-63
2022/04/21 00:52:55;;;;;;;3.30;2.80;;;4.40;99.90;;;;;;5033129;28;20090;-64
2022/04/21 00:55:22;;;;;;;3.95;2.53;;;4.40;99.90;;;;;;5043526;28;20298;-67
2022/04/21 00:57:52;;;;;;;5.65;2.60;;;4.40;99.90;;;;;;5034164;28;20063;-64
2022/04/21 01:00:19;;;;;;;6.50;4.13;;;4.50;99.90;;;;;;5043952;28;20079;-63
2022/04/21 01:02:46;;;;;;;6.18;3.20;;;4.50;99.90;;;;;;5039869;28;20494;-65
2022/04/21 01:05:31;;;;;;;4.95;2.97;;;4.50;99.90;;;;;;5030629;28;20408;-63
2022/04/21 01:08:08;;;;;;;5.47;2.55;;;4.50;99.90;;;;;;5029594;28;20061;-66
2022/04/21 01:10:37;;;;;;;5.13;2.85;;;4.60;99.90;;;;;;5027747;28;20075;-66
2022/04/21 01:13:06;;;;;;;4.95;2.67;;;4.60;99.90;;;;;;5034953;28;20128;-65
2022/04/21 01:15:34;;;;;;;8.65;4.97;;;4.60;99.90;;;;;;5037132;28;20065;-63
2022/04/21 01:18:01;;;;;;;7.53;3.38;;;4.60;99.90;;;;;;5043612;28;20041;-64
2022/04/21 01:20:28;;;;;;;6.20;2.75;;;4.70;99.90;;;;;;5023966;28;20738;-66
2022/04/21 01:22:55;;;;;;;11.32;2.80;;;4.70;99.90;;;;;;5039980;28;20118;-67
2022/04/21 01:25:24;;;;;;;6.55;3.15;;;4.60;99.90;;;;;;5041735;28;20075;-64
2022/04/21 01:27:54;;;;;;;8.75;3.28;;;4.60;99.90;;;;;;5033261;28;20133;-67
2022/04/21 01:30:21;;;;;;;3.28;2.50;;;4.60;99.90;;;;;;5036399;28;20135;-64
2022/04/21 01:32:49;;;;;;;5.07;3.17;;;4.60;99.90;;;;;;5029358;28;20038;-64
2022/04/21 01:35:17;;;;;;;3.38;2.70;;;4.50;99.90;;;;;;5024112;28;20810;-66
2022/04/21 01:43:14;;;;;;;5.75;3.05;;;4.50;99.90;;;;;;5039757;28;20038;-64
2022/04/21 01:45:42;;;;;;;6.68;3.30;;;4.50;99.90;;;;;;5029986;28;20095;-66
2022/04/21 01:48:09;;;;;;;6.03;4.25;;;4.50;99.90;;;;;;5031980;28;20144;-65
2022/04/21 01:50:36;;;;;;;5.03;3.10;;;4.50;99.90;;;;;;5041502;28;20151;-65
2022/04/21 01:53:03;;;;;;;5.40;3.45;;;4.50;99.90;;;;;;5041558;28;20049;-65
2022/04/21 01:55:30;;;;;;;10.10;3.50;;;4.50;99.90;;;;;;5042468;28;20147;-64
2022/04/21 01:57:57;;;;;;;5.18;3.35;;;4.50;99.90;;;;;;5050681;28;20119;-65
2022/04/21 02:00:25;;;;;;;7.97;3.65;;;4.50;99.90;;;;;;5028150;28;20045;-65
2022/04/21 02:02:52;;;;;;;5.63;3.30;;;4.50;99.90;;;;;;5042965;28;20139;-65
2022/04/21 02:05:19;;;;;;;8.57;3.53;;;4.50;99.90;;;;;;5041766;28;20072;-64
2022/04/21 02:07:47;;;;;;;5.18;2.90;;;4.50;99.90;;;;;;5053470;28;20197;-67
2022/04/21 02:10:15;;;;;;;7.63;3.65;;;4.50;99.90;;;;;;5046148;28;20067;-64
2022/04/21 02:12:43;;;;;;;8.68;3.80;;;4.60;99.90;;;;;;5037653;28;20243;-64
2022/04/21 02:15:10;;;;;;;9.07;2.92;;;4.60;99.90;;;;;;5035730;28;20136;-67
2022/04/21 02:17:37;;;;;;;6.45;3.90;;;4.60;99.90;;;;;;5034732;28;20119;-64
2022/04/21 02:20:07;;;;;;;5.25;2.72;;;4.70;99.90;;;;;;5032748;28;20185;-66
2022/04/21 02:22:37;;;;;;;6.63;3.13;;;4.70;99.90;;;;;;5046528;28;20037;-64
2022/04/21 02:25:06;;;;;;;5.47;3.08;;;4.70;99.90;;;;;;5043715;28;20124;-64
2022/04/21 02:27:34;;;;;;;5.90;3.40;;;4.70;99.90;;;;;;5042044;28;20033;-64
2022/04/21 02:30:01;;;;;;;6.97;3.33;;;4.80;99.90;;;;;;5039028;28;20404;-64
2022/04/21 02:32:28;;;;;;;6.22;2.92;;;4.80;99.90;;;;;;5028962;28;20049;-64
2022/04/21 02:34:55;;;;;;;5.22;2.80;;;4.90;99.90;;;;;;5056946;28;20792;-64
2022/04/21 02:37:23;;;;;;;7.88;3.33;;;4.90;99.90;;;;;;5041726;28;20061;-63
2022/04/21 02:39:51;;;;;;;7.00;2.85;;;4.90;99.90;;;;;;5039189;28;20068;-64
2022/04/21 02:42:21;;;;;;;6.35;3.22;;;5.00;99.90;;;;;;5039067;28;20309;-63
2022/04/21 02:44:48;;;;;;;3.58;3.25;;;5.00;99.90;;;;;;5043928;28;20041;-63
2022/04/21 02:47:16;;;;;;;6.88;2.90;;;5.00;99.90;;;;;;5033148;28;20143;-63
2022/04/21 02:49:46;;;;;;;6.88;3.30;;;5.00;99.90;;;;;;5044036;28;20352;-63
2022/04/21 02:52:14;;;;;;;4.03;3.47;;;5.00;99.90;;;;;;5046105;28;20364;-63
2022/04/21 02:57:30;;;;;;;5.88;2.70;;;4.90;99.90;;;;;;5026492;28;20068;-63
2022/04/21 03:00:02;;;;;;;3.72;2.92;;;4.90;99.90;;;;;;5041294;28;20037;-64
2022/04/21 03:02:29;;;;;;;4.72;3.78;;;4.90;99.90;;;;;;5037075;28;20359;-65
2022/04/21 03:04:56;;;;;;;8.23;3.88;;;5.00;99.90;;;;;;5042031;28;20037;-65
2022/04/21 03:07:23;;;;;;;6.13;3.88;;;5.00;99.90;;;;;;5044784;28;20148;-63
2022/04/21 03:09:53;;;;;;;4.32;2.35;;;4.90;99.90;;;;;;5045208;28;20041;-66
2022/04/21 03:12:23;;;;;;;6.28;3.15;;;4.90;99.90;;;;;;5043518;28;20036;-65
2022/04/21 03:14:50;;;;;;;3.78;2.95;;;5.00;99.90;;;;;;5033696;28;20046;-63
2022/04/21 03:17:17;;;;;;;6.88;3.15;;;5.00;99.90;;;;;;5041047;28;20033;-65
2022/04/21 03:19:44;;;;;;;3.30;2.33;;;5.00;99.90;;;;;;5037923;28;20124;-64
2022/04/21 03:25:03;;;;;;;7.20;3.35;;;5.00;99.90;;;;;;5026255;28;20460;-65
2022/04/21 03:27:31;;;;;;;4.07;3.30;;;5.00;99.90;;;;;;5032638;28;20087;-64
2022/04/21 03:30:08;;;;;;;8.18;3.03;;;4.90;99.90;;;;;;5032878;28;20295;-64
2022/04/21 03:32:36;;;;;;;7.65;3.40;;;5.00;99.90;;;;;;5045720;28;20103;-65
2022/04/21 03:35:03;;;;;;;2.97;2.75;;;5.00;99.90;;;;;;5042998;28;20049;-65
2022/04/21 03:37:30;;;;;;;8.05;3.20;;;5.00;99.90;;;;;;5031100;28;20643;-65
2022/04/21 03:39:57;;;;;;;5.00;2.70;;;5.00;99.90;;;;;;5036365;28;20071;-64
2022/04/21 03:42:31;;;;;;;6.47;3.13;;;5.10;99.90;;;;;;5027692;28;20041;-65
2022/04/21 03:44:59;;;;;;;3.25;2.88;;;5.10;99.90;;;;;;5033227;28;20155;-63
2022/04/21 03:47:26;;;;;;;4.88;2.92;;;5.10;99.90;;;;;;5019210;28;20056;-64
2022/04/21 03:49:53;;;;;;;6.28;3.50;;;5.20;99.90;;;;;;5036200;28;20463;-64
2022/04/21 03:52:20;;;;;;;7.72;3.33;;;5.20;99.90;;;;;;5045427;28;20139;-65
2022/04/21 03:54:47;;;;;;;5.40;3.33;;;5.20;99.90;;;;;;5037503;28;20136;-64
2022/04/21 03:57:14;;;;;;;7.20;3.33;;;5.20;99.90;;;;;;5041251;28;20123;-67
2022/04/21 03:59:41;;;;;;;6.10;2.97;;;5.30;99.90;;;;;;5042443;28;20046;-63
2022/04/21 04:02:08;;;;;;;6.13;2.70;;;5.30;99.90;;;;;;5042497;28;20540;-64
2022/04/21 04:04:36;;;;;;;6.10;3.05;;;5.40;99.90;;;;;;5037941;28;20136;-64
2022/04/21 04:12:38;;;;;;;8.38;2.42;;;5.50;99.90;;;;;;5036882;28;20103;-66
2022/04/21 04:15:07;;;;;;;7.18;2.50;;;5.50;99.90;;;;;;5052777;28;20494;-65
2022/04/21 04:17:34;;;;;;;6.65;2.90;;;5.50;99.90;;;;;;5035212;28;20060;-63
2022/04/21 04:20:01;;;;;;;5.00;3.65;;;5.60;99.90;;;;;;5031803;28;20080;-65
2022/04/21 04:22:28;;;;;;;5.47;3.33;;;5.70;99.90;;;;;;5033362;28;20042;-64
2022/04/21 04:24:56;;;;;;;6.10;3.03;;;5.80;99.90;;;;;;5041878;28;20438;-65
2022/04/21 04:27:24;;;;;;;6.25;3.35;;;5.80;99.90;;;;;;5030346;28;20037;-63
2022/04/21 04:29:52;;;;;;;3.00;2.30;;;5.90;99.90;;;;;;5031879;28;20071;-64
2022/04/21 04:32:19;;;;;;;6.80;3.85;;;5.90;99.90;;;;;;5054163;28;20436;-67
2022/04/21 04:34:46;;;;;;;6.82;2.67;;;6.00;99.90;;;;;;5029073;28;20049;-65
2022/04/21 04:37:13;;;;;;;3.40;2.22;;;6.10;99.90;;;;;;5044168;28;20127;-64
2022/04/21 04:39:39;;;;;;;3.85;2.50;;;6.20;99.90;;;;;;5040554;28;20052;-64
2022/04/21 04:42:21;;;;;;;6.93;2.47;;;6.20;99.90;;;;;;5023050;28;20053;-64
2022/04/21 04:46:34;;;;;;;5.25;2.83;;;6.30;99.90;;;;;;5035446;28;20072;-65
2022/04/21 04:47:41;;;;;;;6.75;4.35;;;6.30;99.90;;;;;;5022261;28;20680;-65
2022/04/21 04:50:08;;;;;;;4.85;2.28;;;6.40;99.90;;;;;;5031138;28;20160;-65
2022/04/21 04:52:35;;;;;;;7.70;2.35;;;6.50;99.90;;;;;;5040896;28;20041;-65
2022/04/21 04:55:02;;;;;;;11.27;2.97;;;6.50;99.90;;;;;;5026958;28;20045;-66
2022/04/21 04:57:29;;;;;;;5.60;2.35;;;6.60;99.90;;;;;;5040549;28;20110;-65
2022/04/21 05:00:02;;;;;;;7.72;2.78;;;6.70;99.90;;;;;;5042876;28;20124;-64
2022/04/21 05:02:29;;;;;;;4.72;2.83;;;6.80;99.90;;;;;;5038343;28;20047;-66
2022/04/21 05:04:56;;;;;;;7.18;2.78;;;6.90;99.90;;;;;;5028876;28;20836;-64
2022/04/21 05:07:23;;;;;;;3.60;2.78;;;6.90;99.90;;;;;;5031751;28;20041;-63
2022/04/21 05:09:50;;;;;;;3.17;2.03;;;7.00;99.90;;;;;;5026772;28;20051;-65
2022/04/21 05:12:18;;;;;;;8.00;2.97;;;7.10;99.90;;;;;;5031456;28;20166;-68
2022/04/21 05:14:45;;;;;;;3.40;1.73;;;7.20;99.90;;;;;;5025798;28;20406;-66
2022/04/21 05:17:12;;;;;;;9.30;2.63;;;7.30;99.90;;;;;;5031404;28;20603;-63
2022/04/21 05:19:39;;;;;;;5.80;2.95;;;7.30;99.90;;;;;;5028739;28;20065;-63
2022/04/21 05:22:08;;;;;;;3.55;2.58;;;7.40;99.90;;;;;;5033256;28;20048;-64
2022/04/21 05:24:38;;;;;;;6.30;2.15;;;7.50;99.90;;;;;;5034871;28;20863;-64
2022/04/21 05:27:07;;;;;;;4.32;2.25;;;7.70;99.90;;;;;;5030850;28;20046;-65
2022/04/21 05:32:26;;;;;;;4.22;2.17;;;7.90;99.90;;;;;;5037986;28;20510;-64
2022/04/21 05:34:53;;;;;;;3.53;1.85;;;7.90;99.90;;;;;;5025654;28;20132;-65
2022/04/21 05:37:20;;;;;;;3.22;1.95;;;8.10;99.90;;;;;;5034075;28;20156;-64
2022/04/21 05:39:47;;;;;;;7.82;2.30;;;8.20;99.90;;;;;;5035209;28;20064;-64
2022/04/21 05:42:20;;;;;;;8.85;2.65;;;8.20;99.90;;;;;;5030418;28;20129;-64
2022/04/21 05:44:48;;;;;;;5.88;2.92;;;8.40;99.90;;;;;;5029403;28;20041;-64
2022/04/21 05:47:15;;;;;;;4.13;2.10;;;8.40;99.90;;;;;;5040087;28;20468;-64
2022/04/21 05:49:42;;;;;;;4.78;2.20;;;8.50;99.90;;;;;;5038909;28;20064;-65
2022/04/21 05:52:12;;;;;;;4.97;2.88;;;8.60;99.90;;;;;;5043771;28;20047;-65
2022/04/21 05:54:40;;;;;;;4.95;1.90;;;8.60;99.90;;;;;;5043591;28;20072;-63
2022/04/21 05:57:07;;;;;;;3.50;2.28;;;8.70;99.90;;;;;;5036690;28;20436;-63
2022/04/21 05:59:35;;;;;;;5.15;1.65;;;8.80;99.90;;;;;;5043000;28;20033;-63
2022/04/21 06:02:03;;;;;;;2.90;1.90;;;8.80;99.90;;;;;;5037723;28;20045;-64
2022/04/21 06:04:30;;;;;;;5.00;2.28;;;8.90;99.90;;;;;;5041938;28;20147;-64
2022/04/21 06:06:57;;;;;;;3.70;2.10;;;9.00;99.90;;;;;;5037913;28;20064;-64
2022/04/21 06:09:24;;;;;;;2.38;2.17;;;9.10;99.90;;;;;;5045023;28;20498;-64
2022/04/21 06:11:51;;;;;;;8.52;1.98;;;9.20;99.90;;;;;;5037580;28;20399;-63
2022/04/21 06:14:18;;;;;;;6.82;2.08;;;9.30;99.90;;;;;;5032744;28;20072;-66
2022/04/21 06:16:45;;;;;;;4.32;2.53;;;9.40;99.90;;;;;;5033206;28;20051;-64
2022/04/21 06:19:12;;;;;;;4.68;2.03;;;9.50;99.90;;;;;;5037313;28;20056;-64
2022/04/21 06:21:39;;;;;;;7.80;1.85;;;9.50;99.90;;;;;;5037052;28;20041;-64
2022/04/21 06:24:06;;;;;;;4.38;1.83;;;9.60;99.90;;;;;;5042082;28;20048;-65
2022/04/21 06:26:33;;;;;;;3.47;2.03;;;9.70;99.90;;;;;;5042169;28;20433;-64
2022/04/21 06:29:02;;;;;;;4.00;2.50;;;9.70;99.90;;;;;;5039605;28;20043;-63
2022/04/21 06:31:29;;;;;;;7.43;2.07;;;9.70;99.90;;;;;;5043149;28;20363;-64
2022/04/21 06:33:57;;;;;;;16.17;3.50;;;9.80;99.90;;;;;;5037066;28;20112;-65
2022/04/21 06:36:24;;;;;;;5.40;2.97;;;9.90;99.90;;;;;;5051797;28;20048;-63
2022/04/21 06:38:52;;;;;;;3.08;1.65;;;9.90;99.90;;;;;;5036574;28;20071;-65
2022/04/21 06:41:19;;;;;;;18.60;2.40;;;10.00;99.90;;;;;;5041958;28;20223;-64
2022/04/21 06:49:17;;;;;;;2.42;1.65;;;10.30;99.90;;;;;;5036852;28;20124;-64
2022/04/21 06:51:44;;;;;;;3.15;2.03;;;10.40;99.90;;;;;;5039704;28;20037;-64
2022/04/21 06:54:11;;;;;;;2.35;1.50;;;10.40;99.90;;;;;;5029667;28;20038;-63
2022/04/21 06:56:37;;;;;;;2.17;1.80;;;10.50;99.90;;;;;;5038929;28;20057;-64
2022/04/21 06:59:06;;;;;;;6.05;1.98;;;10.50;99.90;;;;;;5030787;28;20658;-65
2022/04/21 07:01:32;;;;;;;11.88;2.42;;;10.60;99.90;;;;;;5031530;28;20050;-64
2022/04/21 07:04:00;;;;;;;6.88;2.42;;;10.60;99.90;;;;;;5035746;28;20328;-63
2022/04/21 07:06:27;;;;;;;5.40;1.65;;;10.60;99.90;;;;;;5031585;28;20045;-64
2022/04/21 07:08:53;;;;;;;4.80;1.67;;;10.70;99.90;;;;;;5028197;28;20037;-63
2022/04/21 07:11:20;;;;;;;3.38;1.63;;;10.80;99.90;;;;;;5040115;28;20049;-65
2022/04/21 07:13:47;;;;;;;2.00;1.35;;;10.70;99.90;;;;;;5040751;28;20537;-65
2022/04/21 07:16:14;;;;;;;2.08;1.48;;;10.70;99.90;;;;;;5044426;28;20436;-64
2022/04/21 07:18:42;;;;;;;3.95;1.85;;;10.70;99.90;;;;;;5039552;28;20436;-64
2022/04/21 07:21:09;;;;;;;3.20;2.33;;;10.90;99.90;;;;;;5035298;28;20041;-66
2022/04/21 07:23:39;;;;;;;3.53;1.63;;;10.90;99.90;;;;;;5051891;28;20074;-64
2022/04/21 07:26:06;;;;;;;14.93;2.22;;;11.00;99.90;;;;;;5044373;28;20045;-64
2022/04/21 07:28:33;;;;;;;3.70;1.90;;;11.10;99.90;;;;;;5035336;28;20124;-64
2022/04/21 07:31:00;;;;;;;1.73;1.63;;;11.20;99.90;;;;;;5031582;28;20513;-63
2022/04/21 07:33:27;;;;;;;7.00;3.10;;;11.30;99.90;;;;;;5048410;28;20720;-63
2022/04/21 07:35:55;;;;;;;7.00;2.05;;;11.40;99.90;;;;;;5043007;28;20057;-63
2022/04/21 07:38:22;;;;;;;6.13;1.70;;;11.40;99.90;;;;;;5046588;28;20032;-64
2022/04/21 07:40:53;;;;;;;2.72;1.35;;;11.50;99.90;;;;;;5034015;28;20392;-63
2022/04/21 07:43:21;;;;;;;6.32;1.55;;;11.60;99.90;;;;;;5042856;28;20143;-63
2022/04/21 07:45:49;;;;;;;3.15;1.80;;;11.80;99.90;;;;;;5055704;28;20059;-65
2022/04/21 07:48:16;;;;;;;4.85;1.73;;;11.80;99.90;;;;;;5042292;28;20111;-63
2022/04/21 07:50:44;;;;;;;2.17;1.30;;;11.80;99.90;;;;;;5035896;28;20151;-64
2022/04/21 07:53:21;;;;;;;2.97;1.77;;;11.90;99.90;;;;;;5042565;28;20475;-65
2022/04/21 07:55:50;;;;;;;7.05;2.03;;;12.00;99.90;;;;;;5042326;28;20045;-64
2022/04/21 07:58:18;;;;;;;5.95;2.70;;;12.00;99.90;;;;;;5040677;28;20041;-63
2022/04/21 08:00:44;;;;;;;2.97;1.92;;;12.00;99.90;;;;;;5040606;28;20045;-64
2022/04/21 08:03:12;;;;;;;4.15;1.90;;;12.00;99.90;;;;;;5040832;28;20056;-64
2022/04/21 08:05:41;;;;;;;9.20;1.60;;;12.00;99.90;;;;;;5041822;28;20686;-64
2022/04/21 08:08:11;;;;;;;4.28;1.88;;;12.20;99.90;;;;;;5042721;28;20140;-67
2022/04/21 08:10:38;;;;;;;4.18;1.45;;;12.20;99.90;;;;;;5036900;28;20048;-64
2022/04/21 08:13:05;;;;;;;3.90;1.80;;;12.20;99.90;;;;;;5029804;28;20205;-64
2022/04/21 08:15:35;;;;;;;2.60;1.50;;;12.30;99.90;;;;;;5034785;28;20534;-65
2022/04/21 08:18:05;;;;;;;4.00;1.50;;;12.40;99.90;;;;;;5027452;28;20071;-63
2022/04/21 08:20:34;;;;;;;2.92;1.85;;;12.40;99.90;;;;;;5025350;28;20600;-66
2022/04/21 08:23:02;;;;;;;3.63;1.97;;;12.50;99.90;;;;;;5028242;28;20079;-66
2022/04/21 08:34:15;;;;;;;3.95;1.48;;;12.80;99.90;;;;;;5036261;28;20411;-64
2022/04/21 08:36:41;;;;;;;3.08;1.45;;;12.90;99.90;;;;;;5051291;28;20408;-66
2022/04/21 08:39:08;;;;;;;2.13;1.25;;;13.10;99.90;;;;;;5027339;28;20041;-64
2022/04/21 08:41:41;;;;;;;7.00;1.67;;;13.10;99.90;;;;;;5032675;28;20042;-66
2022/04/21 08:44:10;;;;;;;2.30;1.48;;;13.10;99.90;;;;;;5029847;28;20111;-67
2022/04/21 08:46:39;;;;;;;2.67;1.05;;;13.20;99.90;;;;;;5038566;28;20057;-65
2022/04/21 08:49:07;;;;;;;6.68;1.40;;;13.20;99.90;;;;;;5029213;28;20192;-67
2022/04/21 08:51:34;;;;;;;7.18;2.58;;;13.30;99.90;;;;;;5032699;28;20115;-64
2022/04/21 08:54:02;;;;;;;5.55;1.65;;;13.30;99.90;;;;;;5035658;28;20099;-65
2022/04/21 08:56:30;;;;;;;9.00;2.40;;;13.40;99.90;;;;;;5038337;28;20367;-64
2022/04/21 08:58:57;;;;;;;3.70;1.30;;;13.40;99.90;;;;;;5034482;28;20068;-66
2022/04/21 09:01:25;;;;;;;2.38;1.10;;;13.40;99.90;;;;;;5035561;28;20053;-63
2022/04/21 09:03:52;;;;;;;2.72;1.20;;;13.40;99.90;;;;;;5035432;28;20049;-63
2022/04/21 09:06:24;;;;;;;15.40;2.05;;;13.50;99.90;;;;;;5038668;28;20481;-66
2022/04/21 09:09:14;;;;;;;1.42;1.08;;;13.70;99.90;;;;;;5041455;28;20148;-65
2022/04/21 09:11:44;;;;;;;2.70;0.98;;;13.70;99.90;;;;;;5029768;28;20256;-64
2022/04/21 09:14:16;;;;;;;2.78;1.23;;;13.80;99.90;;;;;;5030955;28;20470;-64
2022/04/21 09:16:44;;;;;;;2.38;1.13;;;13.90;99.80;;;;;;5036027;28;20509;-66
2022/04/21 09:19:16;;;;;;;2.33;1.10;;;13.90;99.90;;;;;;5041942;28;20048;-63
2022/04/21 09:21:43;;;;;;;1.77;1.15;;;14.00;99.90;;;;;;5043734;28;20176;-64
2022/04/21 09:24:27;;;;;;;6.60;1.50;;;14.20;99.30;;;;;;5033759;28;20059;-66
2022/04/21 09:26:56;;;;;;;2.28;1.55;;;14.20;99.40;;;;;;5032975;28;20338;-64
2022/04/21 09:29:29;;;;;;;2.45;1.23;;;14.40;98.60;;;;;;5035154;28;20069;-63
2022/04/21 09:32:04;;;;;;;5.55;1.23;;;14.60;98.80;;;;;;5035969;28;20037;-67
2022/04/21 09:34:36;;;;;;;1.70;1.13;;;14.80;97.50;;;;;;5037992;28;20059;-64
2022/04/21 09:37:06;;;;;;;1.85;1.13;;;14.90;97.10;;;;;;5038964;28;20041;-65
2022/04/21 09:39:40;;;;;;;4.07;1.33;;;15.00;96.60;;;;;;5043606;28;20375;-65
2022/04/21 09:42:07;;;;;;;12.85;2.28;;;14.90;94.30;;;;;;5034562;28;20041;-65
2022/04/21 09:47:29;;;;;;;2.83;1.35;;;14.70;95.40;;;;;;5027979;28;20061;-65
2022/04/21 09:49:57;;;;;;;4.72;1.92;;;14.80;95.20;;;;;;5035567;28;20132;-64
2022/04/21 09:52:28;;;;;;;9.80;1.92;;;14.70;95.70;;;;;;5035330;28;20061;-66
2022/04/21 09:54:55;;;;;;;5.75;1.55;;;14.80;95.70;;;;;;5031608;28;20045;-65
2022/04/21 09:57:34;;;;;;;12.50;2.15;;;14.70;94.90;;;;;;5029918;28;20440;-64
2022/04/21 10:00:02;;;;;;;4.40;1.33;;;14.80;95.10;;;;;;5030351;28;20053;-64
2022/04/21 10:02:33;;;;;;;7.05;2.53;;;14.80;95.70;;;;;;5033801;28;20084;-65
2022/04/21 10:05:00;;;;;;;2.90;1.00;;;14.80;94.70;;;;;;5029426;28;20125;-68
2022/04/21 10:07:28;;;;;;;2.75;1.40;;;15.00;95.30;;;;;;5030799;28;20077;-64
2022/04/21 10:09:56;;;;;;;5.63;1.55;;;15.10;94.80;;;;;;5035629;28;20061;-64
2022/04/21 10:12:23;;;;;;;4.50;1.30;;;15.20;94.60;;;;;;5029580;28;20045;-66
2022/04/21 10:14:52;;;;;;;3.42;1.23;;;15.30;93.90;;;;;;5032444;28;20391;-67
2022/04/21 10:17:19;;;;;;;3.22;2.00;;;15.30;95.10;;;;;;5037305;28;20064;-64
2022/04/21 10:19:51;;;;;;;4.25;2.13;;;15.30;93.80;;;;;;5034393;28;20073;-64
2022/04/21 10:22:25;;;;;;;11.07;1.85;;;15.30;94.60;;;;;;5017532;28;20399;-70
2022/04/21 10:24:56;;;;;;;2.95;1.27;;;15.40;94.50;;;;;;5026714;28;20049;-65
2022/04/21 10:27:39;;;;;;;3.08;1.15;;;15.60;94.30;;;;;;5032552;28;20052;-63
2022/04/21 10:30:35;;;;;;;2.75;1.30;;;15.80;94.20;;;;;;5031391;28;20053;-65
2022/04/21 10:33:02;;;;;;;2.85;0.88;;;15.90;92.70;;;;;;5027678;28;20084;-65
2022/04/21 10:35:29;;;;;;;4.53;1.45;;;15.90;92.80;;;;;;5030225;28;20146;-68
2022/04/21 10:38:14;;;;;;;6.07;1.50;;;15.70;93.50;;;;;;5043501;28;20606;-68
2022/04/21 10:41:07;;;;;;;2.72;1.30;;;15.70;92.60;;;;;;5037160;28;20235;-67
2022/04/21 10:43:52;;;;;;;3.38;1.15;;;15.90;92.20;;;;;;5025081;28;20075;-64
2022/04/21 10:46:29;;;;;;;0.90;0.85;;;16.00;92.30;;;;;;5043750;28;20596;-64
2022/04/21 10:48:56;;;;;;;4.00;1.23;;;15.90;93.70;;;;;;5026861;28;20042;-67
2022/04/21 10:51:41;;;;;;;4.90;1.60;;;16.00;92.00;;;;;;5035131;28;20033;-67
2022/04/21 10:57:12;;;;;;;4.45;1.45;;;15.80;91.80;;;;;;5036224;28;20049;-63
2022/04/21 11:00:04;;;;;;;3.10;1.20;;;15.90;92.30;;;;;;5025770;28;20124;-64
2022/04/21 11:02:42;;;;;;;1.33;0.95;;;15.80;91.70;;;;;;5028227;28;20080;-65
2022/04/21 11:05:31;;;;;;;13.85;2.45;;;15.80;91.30;;;;;;5030662;28;20064;-66
2022/04/21 11:08:01;;;;;;;4.10;1.27;;;15.70;91.40;;;;;;5035317;28;20033;-65
2022/04/21 11:10:37;;;;;;;2.78;0.73;;;15.80;92.10;;;;;;5034732;28;20434;-65
2022/04/21 11:13:04;;;;;;;4.53;1.23;;;15.70;90.40;;;;;;5027266;28;20139;-64
2022/04/21 11:15:39;;;;;;;2.63;1.08;;;15.80;91.50;;;;;;5029506;28;20144;-67
2022/04/21 11:18:11;;;;;;;1.45;0.98;;;15.80;91.20;;;;;;5028245;28;20061;-69
2022/04/21 11:20:43;;;;;;;2.33;0.75;;;15.90;91.30;;;;;;5029696;28;20554;-65
2022/04/21 11:23:44;;;;;;;8.15;1.73;;;15.90;90.90;;;;;;5026571;28;20111;-65
2022/04/21 11:26:12;;;;;;;5.15;1.92;;;15.80;90.70;;;;;;5039691;28;20441;-66
2022/04/21 11:28:45;;;;;;;3.17;1.92;;;15.80;92.00;;;;;;5029531;28;20069;-64
2022/04/21 11:31:13;;;;;;;4.25;2.30;;;14.90;97.00;;;;;;5034178;28;20090;-67
2022/04/21 11:33:44;;;;;;;2.67;2.38;;;14.00;99.20;;;;;;5031520;28;20070;-65
2022/04/21 11:36:12;;;;;;;;;;;12.90;99.90;;;;;;5036706;28;20045;-66
2022/04/21 11:38:52;;;;;;;4.80;2.28;;;12.30;99.90;;;;;;5034032;28;20329;-65
2022/04/21 11:41:18;;;;;;;6.30;2.40;;;12.20;99.90;;;;;;5033194;28;20450;-64
2022/04/21 11:43:46;;;;;;;8.40;2.90;;;11.90;99.90;;;;;;5031232;28;20041;-65
2022/04/21 11:46:13;;;;;;;8.13;2.65;;;11.90;99.90;;;;;;5034853;28;20041;-64
2022/04/21 11:48:41;;;;;;;4.60;2.13;;;11.90;99.90;;;;;;5031073;28;20050;-68
2022/04/21 11:51:11;;;;;;;5.70;2.65;;;12.00;99.90;;;;;;5024551;28;20033;-64
2022/04/21 11:53:43;;;;;;;6.40;2.90;;;11.80;99.90;;;;;;5032781;28;20033;-65
2022/04/21 11:56:12;;;;;;;5.63;3.55;;;11.50;99.90;;;;;;5030473;28;20057;-70
2022/04/21 11:58:41;;;;;;;15.93;3.10;;;11.30;99.90;;;;;;5035674;28;20149;-66
2022/04/21 12:06:58;;;;;;;9.50;4.63;;;10.70;99.90;;;;;;5033669;28;20107;-64
2022/04/21 12:09:27;;;;;;;6.05;2.45;;;10.70;99.90;;;;;;5027424;28;20115;-64
2022/04/21 12:11:59;;;;;;;6.05;3.08;;;10.60;99.90;;;;;;5036681;28;20068;-64
2022/04/21 12:14:27;;;;;;;4.55;2.90;;;10.60;99.90;;;;;;5025081;28;20056;-64
2022/04/21 12:16:59;;;;;;;9.70;3.28;;;10.60;99.90;;;;;;5036616;28;20042;-64
2022/04/21 12:19:28;;;;;;;6.43;2.60;;;10.50;99.90;;;;;;5036603;28;20049;-64
2022/04/21 12:21:58;;;;;;;5.10;2.92;;;10.40;99.90;;;;;;5037910;28;20047;-64
2022/04/21 12:24:34;;;;;;;9.70;3.90;;;10.40;99.90;;;;;;5034235;28;20045;-65
2022/04/21 12:27:04;;;;;;;10.15;3.58;;;10.20;99.90;;;;;;5040763;28;20136;-65
2022/04/21 12:29:44;;;;;;;3.33;2.17;;;10.30;99.90;;;;;;5032437;28;20059;-64
2022/04/21 12:32:11;;;;;;;9.25;2.83;;;10.40;99.90;;;;;;5029107;28;20039;-65
2022/04/21 12:34:41;;;;;;;12.43;4.22;;;10.60;99.90;;;;;;5030846;28;20411;-67
2022/04/21 12:37:09;;;;;;;6.85;2.42;;;10.60;99.90;;;;;;5036420;28;20049;-67
2022/04/21 12:39:36;;;;;;;5.43;2.70;;;10.60;99.90;;;;;;5029568;28;20083;-65
2022/04/21 12:42:23;;;;;;;6.57;2.38;;;10.40;99.90;;;;;;5031693;28;20132;-63
2022/04/21 12:44:51;;;;;;;11.15;4.60;;;10.30;99.90;;;;;;5040811;28;20059;-67
2022/04/21 12:47:19;;;;;;;6.53;2.80;;;10.20;99.90;;;;;;5037654;28;20064;-64
2022/04/21 12:50:08;;;;;;;7.57;2.83;;;10.10;99.90;;;;;;5031871;28;20132;-65
2022/04/21 12:52:47;;;;;;;12.40;4.47;;;9.70;99.90;;;;;;5030989;28;20139;-64
2022/04/21 12:55:23;;;;;;;11.18;3.40;;;9.80;99.90;;;;;;5030677;28;20485;-65
2022/04/21 12:58:10;;;;;;;10.95;3.38;;;9.80;99.90;;;;;;5033388;28;20419;-64
2022/04/21 13:00:40;;;;;;;7.38;2.67;;;9.80;99.90;;;;;;5030712;28;20053;-68
2022/04/21 13:03:10;;;;;;;10.95;3.03;;;9.60;99.90;;;;;;5037389;28;20037;-64
2022/04/21 13:05:54;;;;;;;3.60;2.78;;;9.60;99.90;;;;;;5036374;28;20033;-64
2022/04/21 13:08:24;;;;;;;5.45;2.50;;;9.40;99.90;;;;;;5035778;28;20128;-64
2022/04/21 13:10:53;;;;;;;6.47;2.88;;;9.50;99.90;;;;;;5042281;28;20072;-65
2022/04/21 13:13:20;;;;;;;7.68;2.50;;;9.40;99.90;;;;;;5036696;28;20182;-67
2022/04/21 13:15:48;;;;;;;5.68;3.05;;;9.40;99.90;;;;;;5033828;28;20491;-64
2022/04/21 13:18:15;;;;;;;7.28;3.97;;;9.40;99.90;;;;;;5042896;28;20156;-63
2022/04/21 13:23:30;;;;;;;5.32;2.85;;;9.60;99.90;;;;;;5028180;28;20136;-63
2022/04/21 13:26:00;;;;;;;9.93;3.20;;;9.80;99.90;;;;;;5031318;28;20041;-67
2022/04/21 13:28:46;;;;;;;6.77;3.57;;;10.00;99.90;;;;;;5024985;28;20052;-63
2022/04/21 13:33:59;;;;;;;4.03;2.38;;;10.10;99.90;;;;;;5035225;28;20087;-65
2022/04/21 13:36:26;;;;;;;10.75;4.25;;;10.10;99.90;;;;;;5035960;28;20139;-68
2022/04/21 13:38:53;;;;;;;8.07;3.10;;;10.00;99.90;;;;;;5030637;28;20061;-64
2022/04/21 13:41:20;;;;;;;8.65;2.83;;;10.00;99.90;;;;;;5027914;28;20045;-64
2022/04/21 13:43:47;;;;;;;7.63;2.72;;;10.00;99.90;;;;;;5036029;28;20127;-65
2022/04/21 13:46:35;;;;;;;6.60;2.40;;;9.80;99.90;;;;;;5032416;28;20041;-65
2022/04/21 13:49:03;;;;;;;5.80;3.03;;;9.60;99.90;;;;;;5027364;28;20121;-67
2022/04/21 13:51:30;;;;;;;8.88;2.95;;;9.50;99.90;;;;;;5035302;28;20045;-65
2022/04/21 13:53:57;;;;;;;10.18;3.17;;;9.60;99.90;;;;;;5043182;28;20119;-65
2022/04/21 13:56:25;;;;;;;7.85;3.05;;;9.70;99.90;;;;;;5033283;28;20145;-67
2022/04/21 13:58:52;;;;;;;7.88;3.35;;;9.90;99.90;;;;;;5032574;28;20140;-65